Time;durP1;ratioP1;P1;durP2;ratioP2;P2;SDS_P1;SDS_P2;PMS_P1;PMS_P2;Temp;Humidity;BMP_temperature;BMP_pressure;BME280_temperature;BME280_humidity;BME280_pressure;Samples;Min_cycle;Max_cycle;Signal;HPM_P1;HPM_P2
2023/02/15 00:02:21;;;;;;;5.75;2.50;;;;;;;;;;5109803;28;20402;-80
2023/02/15 00:04:53;;;;;;;4.75;2.75;;;;;;;;;;5090957;28;20051;-79
2023/02/15 00:07:23;;;;;;;4.50;2.53;;;;;;;;;;5108672;28;20410;-77
2023/02/15 00:09:54;;;;;;;6.18;2.85;;;;;;;;;;5092367;28;20048;-76
2023/02/15 00:12:24;;;;;;;5.65;2.80;;;;;;;;;;5111278;28;20048;-77
2023/02/15 00:14:56;;;;;;;4.03;3.05;;;;;;;;;;5108915;28;20047;-76
2023/02/15 00:17:28;;;;;;;5.13;2.90;;;;;;;;;;5092183;28;20047;-77
2023/02/15 00:19:59;;;;;;;6.55;3.08;;;;;;;;;;5109442;28;20849;-75
2023/02/15 00:22:29;;;;;;;6.00;3.20;;;;;;;;;;5109663;28;20051;-78
2023/02/15 00:25:00;;;;;;;5.90;3.45;;;;;;;;;;5108825;28;20044;-77
2023/02/15 00:27:29;;;;;;;9.38;3.00;;;;;;;;;;5112101;28;20070;-77
2023/02/15 00:30:00;;;;;;;9.63;3.33;;;;;;;;;;5109704;28;20054;-76
2023/02/15 00:32:31;;;;;;;7.32;3.50;;;;;;;;;;5109115;28;20043;-77
2023/02/15 00:35:02;;;;;;;5.70;3.40;;;;;;;;;;5090153;28;20051;-78
2023/02/15 00:37:34;;;;;;;4.53;3.30;;;;;;;;;;5089774;28;20058;-78
2023/02/15 00:40:06;;;;;;;3.83;3.05;;;;;;;;;;5107937;28;20047;-77
2023/02/15 00:42:37;;;;;;;5.63;3.20;;;;;;;;;;5108750;28;20052;-78
2023/02/15 00:45:09;;;;;;;5.93;3.53;;;;;;;;;;5108760;28;20062;-76
2023/02/15 00:47:39;;;;;;;9.20;4.05;;;;;;;;;;5107673;28;20049;-77
2023/02/15 00:50:09;;;;;;;5.63;3.40;;;;;;;;;;5088052;28;20052;-78
2023/02/15 00:52:40;;;;;;;4.88;3.20;;;;;;;;;;5088871;28;20070;-76
2023/02/15 00:55:10;;;;;;;4.15;3.22;;;;;;;;;;5107719;28;20367;-77
2023/02/15 00:57:40;;;;;;;5.05;3.63;;;;;;;;;;5107606;28;20054;-76
2023/02/15 01:00:11;;;;;;;6.35;3.17;;;;;;;;;;5106977;28;20035;-78
2023/02/15 01:02:42;;;;;;;5.80;3.70;;;;;;;;;;5107404;28;20055;-76
2023/02/15 01:05:13;;;;;;;4.80;3.20;;;;;;;;;;5107551;28;20039;-78
2023/02/15 01:07:44;;;;;;;7.25;3.60;;;;;;;;;;5088026;28;20051;-77
2023/02/15 01:10:14;;;;;;;5.45;3.15;;;;;;;;;;5107936;28;20056;-76
2023/02/15 01:12:46;;;;;;;3.97;3.58;;;;;;;;;;5108084;28;21041;-75
2023/02/15 01:15:17;;;;;;;4.55;3.33;;;;;;;;;;5089330;28;20047;-76
2023/02/15 01:17:54;;;;;;;6.68;3.55;;;;;;;;;;5108290;28;20044;-75
2023/02/15 01:20:27;;;;;;;5.30;3.67;;;;;;;;;;5107966;28;20118;-77
2023/02/15 01:22:59;;;;;;;5.35;3.80;;;;;;;;;;5107839;28;20406;-76
2023/02/15 01:25:29;;;;;;;6.53;3.70;;;;;;;;;;5088843;28;20043;-76
2023/02/15 01:28:00;;;;;;;6.20;3.20;;;;;;;;;;5107516;28;20044;-76
2023/02/15 01:30:29;;;;;;;5.88;3.15;;;;;;;;;;5089452;28;20055;-77
2023/02/15 01:33:01;;;;;;;9.30;3.40;;;;;;;;;;5107597;28;20406;-75
2023/02/15 01:35:32;;;;;;;6.60;3.42;;;;;;;;;;5108352;28;20047;-76
2023/02/15 01:38:02;;;;;;;4.47;2.92;;;;;;;;;;5107173;28;20055;-75
2023/02/15 01:40:32;;;;;;;7.05;3.03;;;;;;;;;;5107392;28;20040;-75
2023/02/15 01:43:02;;;;;;;4.25;3.13;;;;;;;;;;5107499;28;20055;-75
2023/02/15 01:45:33;;;;;;;4.97;3.13;;;;;;;;;;5107528;28;20050;-74
2023/02/15 01:48:11;;;;;;;6.50;2.80;;;;;;;;;;5090040;28;20499;-75
2023/02/15 01:50:46;;;;;;;3.97;2.85;;;;;;;;;;5088402;28;20407;-75
2023/02/15 01:53:29;;;;;;;4.93;2.70;;;;;;;;;;5107666;28;20752;-74
2023/02/15 01:56:06;;;;;;;5.65;2.60;;;;;;;;;;5107512;28;20422;-75
2023/02/15 01:58:38;;;;;;;4.47;2.45;;;;;;;;;;5089171;28;20487;-75
2023/02/15 02:01:09;;;;;;;4.25;2.50;;;;;;;;;;5107044;28;20052;-76
2023/02/15 02:04:06;;;;;;;2.67;2.03;;;;;;;;;;5088806;28;20047;-75
2023/02/15 02:06:39;;;;;;;3.60;2.67;;;;;;;;;;5107235;28;20400;-76
2023/02/15 02:09:10;;;;;;;2.95;2.20;;;;;;;;;;5106852;28;20040;-73
2023/02/15 02:11:44;;;;;;;3.03;2.05;;;;;;;;;;5071790;28;20078;-75
2023/02/15 02:14:16;;;;;;;2.67;2.17;;;;;;;;;;5106953;28;20055;-75
2023/02/15 02:16:58;;;;;;;5.45;1.95;;;;;;;;;;5088807;28;20059;-75
2023/02/15 02:19:35;;;;;;;3.10;1.95;;;;;;;;;;5088286;28;20530;-73
2023/02/15 02:22:29;;;;;;;2.50;2.10;;;;;;;;;;5107433;28;20047;-76
2023/02/15 02:25:32;;;;;;;2.45;1.92;;;;;;;;;;5107146;28;20406;-74
2023/02/15 02:28:14;;;;;;;3.17;1.92;;;;;;;;;;5107467;28;20836;-76
2023/02/15 02:31:12;;;;;;;2.70;2.25;;;;;;;;;;5111352;28;20047;-76
2023/02/15 02:34:16;;;;;;;2.95;1.80;;;;;;;;;;5093656;28;20414;-74
2023/02/15 02:37:07;;;;;;;4.43;2.03;;;;;;;;;;5067490;28;20059;-74
2023/02/15 02:39:49;;;;;;;4.22;2.30;;;;;;;;;;5111078;28;20058;-75
2023/02/15 02:42:43;;;;;;;3.17;2.15;;;;;;;;;;5092602;28;20051;-75
2023/02/15 02:45:19;;;;;;;8.50;2.38;;;;;;;;;;5111898;28;20048;-73
2023/02/15 02:47:57;;;;;;;2.55;2.13;;;;;;;;;;5111191;28;20040;-76
2023/02/15 02:50:30;;;;;;;2.65;2.13;;;;;;;;;;5092066;28;20066;-76
2023/02/15 02:53:00;;;;;;;3.78;2.13;;;;;;;;;;5092472;28;20048;-76
2023/02/15 02:55:34;;;;;;;4.35;2.30;;;;;;;;;;5111055;28;20031;-76
2023/02/15 02:58:26;;;;;;;4.00;2.40;;;;;;;;;;5092147;28;20071;-75
2023/02/15 03:01:07;;;;;;;3.28;2.38;;;;;;;;;;5075769;28;20056;-74
2023/02/15 03:03:51;;;;;;;5.28;1.98;;;;;;;;;;5092354;28;20058;-74
2023/02/15 03:06:47;;;;;;;3.50;2.10;;;;;;;;;;5091455;28;20051;-75
2023/02/15 03:09:41;;;;;;;2.40;1.83;;;;;;;;;;5092100;28;20056;-75
2023/02/15 03:12:20;;;;;;;3.05;1.65;;;;;;;;;;5109509;28;20048;-74
2023/02/15 03:15:19;;;;;;;3.42;2.20;;;;;;;;;;5090901;28;20047;-73
2023/02/15 03:18:02;;;;;;;3.08;1.90;;;;;;;;;;5091143;28;20414;-74
2023/02/15 03:20:36;;;;;;;3.10;1.90;;;;;;;;;;5109900;28;20044;-75
2023/02/15 03:23:14;;;;;;;3.40;2.38;;;;;;;;;;5109095;28;20058;-74
2023/02/15 03:25:50;;;;;;;3.10;2.00;;;;;;;;;;5091453;28;20050;-75
2023/02/15 03:28:32;;;;;;;3.25;2.15;;;;;;;;;;5091165;28;20541;-74
2023/02/15 03:31:07;;;;;;;4.50;1.83;;;;;;;;;;5110052;28;20048;-74
2023/02/15 03:33:45;;;;;;;7.90;2.00;;;;;;;;;;5110308;28;20051;-74
2023/02/15 03:36:23;;;;;;;7.20;1.88;;;;;;;;;;5109377;28;20402;-74
2023/02/15 03:39:17;;;;;;;4.53;1.85;;;;;;;;;;5109582;28;20044;-75
2023/02/15 03:42:01;;;;;;;2.95;1.75;;;;;;;;;;5109701;28;20412;-75
2023/02/15 03:44:38;;;;;;;3.28;2.13;;;;;;;;;;5109319;28;20043;-73
2023/02/15 03:47:23;;;;;;;3.17;2.00;;;;;;;;;;5092026;28;20059;-74
2023/02/15 03:50:02;;;;;;;3.97;1.83;;;;;;;;;;5109513;28;20047;-74
2023/02/15 03:52:34;;;;;;;5.38;1.85;;;;;;;;;;5109821;28;20513;-74
2023/02/15 03:55:05;;;;;;;4.15;1.75;;;;;;;;;;5109824;28;20050;-74
2023/02/15 04:03:34;;;;;;;4.20;2.13;;;;;;;;;;5108442;28;20054;-75
2023/02/15 04:06:05;;;;;;;2.50;2.05;;;;;;;;;;5090255;28;20052;-74
2023/02/15 04:11:24;;;;;;;4.35;2.05;;;;;;;;;;5109168;28;20905;-76
2023/02/15 04:13:56;;;;;;;3.15;2.17;;;;;;;;;;5109216;28;20039;-74
2023/02/15 04:16:29;;;;;;;3.60;2.30;;;;;;;;;;5108960;28;20047;-74
2023/02/15 04:27:27;;;;;;;5.38;2.30;;;;;;;;;;5109171;28;20046;-74
2023/02/15 04:29:56;;;;;;;3.35;2.30;;;;;;;;;;5109418;28;20048;-75
2023/02/15 04:32:27;;;;;;;5.07;2.30;;;;;;;;;;5091032;28;20044;-76
2023/02/15 04:34:57;;;;;;;8.00;2.38;;;;;;;;;;5108962;28;20055;-74
2023/02/15 04:37:28;;;;;;;3.55;2.15;;;;;;;;;;5108772;28;20040;-75
2023/02/15 04:39:59;;;;;;;3.80;2.58;;;;;;;;;;5108725;28;20043;-75
2023/02/15 04:42:29;;;;;;;3.10;2.25;;;;;;;;;;5109168;28;20048;-74
2023/02/15 04:44:59;;;;;;;3.88;2.35;;;;;;;;;;5108793;28;20125;-75
2023/02/15 04:47:29;;;;;;;3.60;2.17;;;;;;;;;;5108974;28;20490;-74
2023/02/15 04:50:00;;;;;;;7.10;2.13;;;;;;;;;;5108051;28;20054;-74
2023/02/15 04:52:31;;;;;;;5.45;2.40;;;;;;;;;;5107728;28;20051;-74
2023/02/15 04:55:02;;;;;;;4.57;2.22;;;;;;;;;;5108752;28;20502;-74
2023/02/15 04:57:31;;;;;;;3.47;1.88;;;;;;;;;;5089383;28;20047;-75
2023/02/15 05:00:03;;;;;;;4.22;2.38;;;;;;;;;;5108124;28;20051;-75
2023/02/15 05:02:34;;;;;;;3.30;2.42;;;;;;;;;;5108279;28;20703;-75
2023/02/15 05:05:04;;;;;;;6.25;2.00;;;;;;;;;;5108148;28;20051;-75
2023/02/15 05:07:35;;;;;;;6.25;2.47;;;;;;;;;;5108228;28;20054;-75
2023/02/15 05:10:07;;;;;;;3.72;2.25;;;;;;;;;;5108003;28;20422;-75
2023/02/15 05:12:38;;;;;;;3.00;1.85;;;;;;;;;;5107981;28;20521;-74
2023/02/15 05:15:09;;;;;;;2.67;2.17;;;;;;;;;;5088749;28;20537;-74
2023/02/15 05:17:40;;;;;;;5.10;2.25;;;;;;;;;;5107978;28;20050;-74
2023/02/15 05:20:11;;;;;;;6.35;2.00;;;;;;;;;;5090079;28;20051;-75
2023/02/15 05:22:43;;;;;;;2.78;2.17;;;;;;;;;;5108130;28;20040;-75
2023/02/15 05:28:21;;;;;;;7.93;2.15;;;;;;;;;;5088550;28;20498;-74
2023/02/15 05:31:05;;;;;;;2.72;1.85;;;;;;;;;;5107664;28;20043;-75
2023/02/15 05:33:36;;;;;;;4.78;2.25;;;;;;;;;;5107906;28;20043;-74
2023/02/15 05:36:06;;;;;;;3.60;2.00;;;;;;;;;;5107624;28;20398;-75
2023/02/15 05:38:38;;;;;;;3.40;2.38;;;;;;;;;;5107473;28;20050;-75
2023/02/15 05:41:11;;;;;;;4.45;2.05;;;;;;;;;;5107734;28;20789;-75
2023/02/15 05:43:42;;;;;;;4.85;2.20;;;;;;;;;;5106847;28;20406;-75
2023/02/15 05:46:13;;;;;;;4.70;2.22;;;;;;;;;;5107325;28;20656;-75
2023/02/15 05:48:44;;;;;;;6.05;2.25;;;;;;;;;;5107180;28;20051;-75
2023/02/15 05:51:15;;;;;;;3.45;2.13;;;;;;;;;;5107241;28;20044;-75
2023/02/15 05:53:46;;;;;;;4.25;1.98;;;;;;;;;;5107255;28;20050;-75
2023/02/15 05:56:16;;;;;;;5.57;2.08;;;;;;;;;;5107846;28;20041;-75
2023/02/15 05:58:46;;;;;;;3.30;2.13;;;;;;;;;;5106868;28;20529;-75
2023/02/15 06:01:21;;;;;;;3.38;2.20;;;;;;;;;;5107101;28;20433;-74
2023/02/15 06:03:53;;;;;;;4.05;2.20;;;;;;;;;;5106703;28;20040;-75
2023/02/15 06:06:25;;;;;;;2.90;2.00;;;;;;;;;;5107137;28;20050;-75
2023/02/15 06:08:55;;;;;;;4.68;2.25;;;;;;;;;;5089067;28;20050;-74
2023/02/15 06:11:25;;;;;;;3.20;2.10;;;;;;;;;;5088206;28;20060;-75
2023/02/15 06:13:56;;;;;;;3.67;2.28;;;;;;;;;;5107050;28;20040;-74
2023/02/15 06:16:27;;;;;;;8.02;2.53;;;;;;;;;;5106689;28;20048;-74
2023/02/15 06:18:58;;;;;;;6.57;1.90;;;;;;;;;;5106656;28;20430;-75
2023/02/15 06:21:30;;;;;;;3.35;2.20;;;;;;;;;;5107294;28;20055;-74
2023/02/15 06:24:01;;;;;;;5.35;2.00;;;;;;;;;;5106979;28;20406;-75
2023/02/15 06:26:32;;;;;;;4.60;2.00;;;;;;;;;;5087843;28;20074;-75
2023/02/15 06:29:03;;;;;;;4.00;2.00;;;;;;;;;;5107272;28;20051;-75
2023/02/15 06:31:34;;;;;;;6.80;2.00;;;;;;;;;;5107112;28;20047;-74
2023/02/15 06:34:05;;;;;;;7.30;2.10;;;;;;;;;;5106594;28;20449;-75
2023/02/15 06:36:36;;;;;;;3.58;2.13;;;;;;;;;;5107140;28;20051;-75
2023/02/15 06:39:06;;;;;;;5.95;2.20;;;;;;;;;;5105679;28;20055;-74
2023/02/15 06:41:36;;;;;;;4.25;2.28;;;;;;;;;;5106868;28;20391;-74
2023/02/15 06:44:07;;;;;;;3.03;2.03;;;;;;;;;;5107233;28;20054;-74
2023/02/15 06:46:38;;;;;;;8.55;2.65;;;;;;;;;;5106333;28;20055;-75
2023/02/15 06:49:08;;;;;;;5.45;2.50;;;;;;;;;;5106961;28;20054;-74
2023/02/15 06:51:38;;;;;;;5.10;2.50;;;;;;;;;;5106465;28;20054;-75
2023/02/15 06:54:08;;;;;;;4.75;2.60;;;;;;;;;;5106809;28;20580;-75
2023/02/15 06:56:39;;;;;;;6.10;2.70;;;;;;;;;;5106496;28;20058;-75
2023/02/15 06:59:11;;;;;;;10.55;2.40;;;;;;;;;;5106771;28;20054;-74
2023/02/15 07:01:41;;;;;;;4.70;2.67;;;;;;;;;;5105919;28;20043;-74
2023/02/15 07:04:12;;;;;;;5.80;2.78;;;;;;;;;;5106859;28;20043;-75
2023/02/15 07:06:42;;;;;;;3.92;2.40;;;;;;;;;;5107269;28;20426;-74
2023/02/15 07:09:13;;;;;;;6.57;2.65;;;;;;;;;;5106761;28;20046;-74
2023/02/15 07:14:32;;;;;;;6.28;2.38;;;;;;;;;;5087092;28;20040;-74
2023/02/15 07:17:02;;;;;;;6.13;2.70;;;;;;;;;;5109864;28;20375;-74
2023/02/15 07:19:33;;;;;;;7.97;2.60;;;;;;;;;;5110243;28;20043;-74
2023/02/15 07:22:04;;;;;;;5.72;2.70;;;;;;;;;;5109495;28;20051;-74
2023/02/15 07:24:34;;;;;;;4.43;2.50;;;;;;;;;;5110189;28;20058;-74
2023/02/15 07:27:06;;;;;;;10.55;3.10;;;;;;;;;;5109923;28;20494;-74
2023/02/15 07:29:37;;;;;;;5.53;2.50;;;;;;;;;;5091575;28;20047;-74
2023/02/15 07:32:08;;;;;;;3.15;2.53;;;;;;;;;;5110606;28;20058;-74
2023/02/15 07:34:40;;;;;;;5.25;2.58;;;;;;;;;;5109312;28;20052;-74
2023/02/15 07:37:11;;;;;;;4.63;2.42;;;;;;;;;;5109848;28;20117;-75
2023/02/15 07:39:41;;;;;;;10.18;2.60;;;;;;;;;;5109792;28;20052;-74
2023/02/15 07:42:11;;;;;;;5.90;2.40;;;;;;;;;;5109968;28;20039;-74
2023/02/15 07:44:41;;;;;;;6.97;2.83;;;;;;;;;;5109816;28;20521;-74
2023/02/15 07:47:13;;;;;;;4.80;2.28;;;;;;;;;;5109114;28;20491;-74
2023/02/15 07:49:45;;;;;;;14.70;3.45;;;;;;;;;;5109831;28;20061;-74
2023/02/15 07:52:15;;;;;;;7.15;2.50;;;;;;;;;;5091010;28;20052;-74
2023/02/15 07:54:45;;;;;;;11.23;3.00;;;;;;;;;;5110061;28;20040;-74
2023/02/15 07:57:15;;;;;;;13.60;2.65;;;;;;;;;;5109658;28;20533;-74
2023/02/15 07:59:46;;;;;;;5.15;2.63;;;;;;;;;;5109570;28;20396;-74
2023/02/15 08:02:18;;;;;;;6.68;2.75;;;;;;;;;;5109579;28;20580;-74
2023/02/15 08:04:49;;;;;;;6.57;2.85;;;;;;;;;;5109184;28;20050;-74
2023/02/15 08:07:19;;;;;;;6.43;2.92;;;;;;;;;;5109504;28;20051;-74
2023/02/15 08:09:50;;;;;;;5.07;2.63;;;;;;;;;;5108982;28;20035;-74
2023/02/15 08:12:20;;;;;;;4.75;2.42;;;;;;;;;;5091250;28;20486;-74
2023/02/15 08:14:50;;;;;;;7.45;2.97;;;;;;;;;;5090729;28;20399;-74
2023/02/15 08:17:21;;;;;;;9.05;3.05;;;;;;;;;;5109843;28;20047;-74
2023/02/15 08:19:52;;;;;;;13.70;2.95;;;;;;;;;;5109605;28;20406;-75
2023/02/15 08:22:23;;;;;;;8.85;2.65;;;;;;;;;;5089618;28;20048;-74
2023/02/15 08:24:54;;;;;;;4.82;2.75;;;;;;;;;;5090135;28;20054;-75
2023/02/15 08:27:26;;;;;;;8.90;2.80;;;;;;;;;;5108072;28;20039;-74
2023/02/15 08:29:56;;;;;;;4.38;2.50;;;;;;;;;;5108731;28;20040;-74
2023/02/15 08:32:27;;;;;;;10.27;2.70;;;;;;;;;;5109735;28;20047;-74
2023/02/15 08:34:59;;;;;;;5.30;3.00;;;;;;;;;;5108603;28;20043;-74
2023/02/15 08:37:30;;;;;;;6.78;3.42;;;;;;;;;;5108377;28;20054;-74
2023/02/15 08:39:59;;;;;;;4.28;2.90;;;;;;;;;;5108689;28;20048;-75
2023/02/15 08:42:30;;;;;;;5.07;2.65;;;;;;;;;;5108936;28;20523;-75
2023/02/15 08:45:00;;;;;;;7.57;3.20;;;;;;;;;;5089825;28;20047;-75
2023/02/15 08:47:31;;;;;;;12.05;3.38;;;;;;;;;;5108628;28;20047;-76
2023/02/15 08:50:00;;;;;;;6.05;2.75;;;;;;;;;;5108320;28;20051;-76
2023/02/15 08:52:31;;;;;;;8.60;3.28;;;;;;;;;;5108294;28;20156;-76
2023/02/15 08:55:01;;;;;;;9.00;2.83;;;;;;;;;;5108314;28;20055;-76
2023/02/15 08:57:32;;;;;;;3.78;2.95;;;;;;;;;;5108438;28;20044;-75
2023/02/15 09:00:04;;;;;;;5.82;2.90;;;;;;;;;;5108333;28;20043;-77
2023/02/15 09:02:36;;;;;;;8.73;3.50;;;;;;;;;;5108297;28;20521;-76
2023/02/15 09:05:06;;;;;;;7.55;3.58;;;;;;;;;;5108478;28;20684;-76
2023/02/15 09:07:37;;;;;;;7.22;3.45;;;;;;;;;;5108436;28;20043;-75
2023/02/15 09:10:09;;;;;;;6.35;3.42;;;;;;;;;;5107637;28;20050;-75
2023/02/15 09:12:39;;;;;;;5.40;3.13;;;;;;;;;;5090367;28;20054;-75
2023/02/15 09:15:10;;;;;;;6.43;3.30;;;;;;;;;;5108217;28;20062;-76
2023/02/15 09:17:41;;;;;;;7.93;3.60;;;;;;;;;;5107859;28;20509;-76
2023/02/15 09:20:12;;;;;;;6.18;3.50;;;;;;;;;;5107613;28;20520;-75
2023/02/15 09:22:42;;;;;;;6.47;3.55;;;;;;;;;;5107892;28;20043;-75
2023/02/15 09:25:13;;;;;;;6.63;3.60;;;;;;;;;;5108252;28;20411;-75
2023/02/15 09:27:44;;;;;;;11.90;4.00;;;;;;;;;;5108392;28;20047;-76
2023/02/15 09:30:15;;;;;;;8.85;3.80;;;;;;;;;;5108330;28;20050;-75
2023/02/15 09:32:48;;;;;;;5.13;3.72;;;;;;;;;;5107570;28;20518;-76
2023/02/15 09:35:18;;;;;;;6.70;4.10;;;;;;;;;;5088587;28;20437;-76
2023/02/15 09:37:48;;;;;;;9.45;3.70;;;;;;;;;;5107983;28;20044;-76
2023/02/15 09:40:20;;;;;;;11.27;4.15;;;;;;;;;;5107407;28;20050;-77
2023/02/15 09:43:15;;;;;;;7.90;3.60;;;;;;;;;;5107799;28;20067;-75
2023/02/15 09:46:35;;;;;;;7.78;3.67;;;;;;;;;;5107107;28;20534;-77
2023/02/15 09:49:25;;;;;;;5.85;3.38;;;;;;;;;;5091547;28;20055;-75
2023/02/15 09:52:06;;;;;;;8.60;4.00;;;;;;;;;;5107090;28;20058;-75
2023/02/15 09:55:10;;;;;;;7.55;4.32;;;;;;;;;;5107991;28;20525;-78
2023/02/15 09:57:58;;;;;;;7.75;3.67;;;;;;;;;;5063463;28;20067;-76
2023/02/15 10:00:55;;;;;;;7.70;4.13;;;;;;;;;;5107055;28;20054;-76
2023/02/15 10:04:09;;;;;;;8.63;3.90;;;;;;;;;;5107412;28;20510;-76
2023/02/15 10:07:15;;;;;;;6.03;3.10;;;;;;;;;;5105067;28;20425;-76
2023/02/15 10:09:51;;;;;;;7.90;3.25;;;;;;;;;;5104721;28;20059;-75
2023/02/15 10:12:43;;;;;;;8.82;3.20;;;;;;;;;;5106609;28;20047;-75
2023/02/15 10:15:51;;;;;;;5.28;3.20;;;;;;;;;;5088143;28;20059;-75
2023/02/15 10:18:34;;;;;;;3.40;2.78;;;;;;;;;;5093449;28;20051;-77
2023/02/15 10:21:39;;;;;;;8.50;3.05;;;;;;;;;;5106667;28;20101;-76
2023/02/15 10:25:11;;;;;;;6.10;2.90;;;;;;;;;;5106335;28;20051;-76
2023/02/15 10:27:47;;;;;;;7.15;2.50;;;;;;;;;;5009640;28;20394;-75
2023/02/15 10:30:27;;;;;;;4.70;2.70;;;;;;;;;;5004462;28;20054;-75
2023/02/15 10:33:08;;;;;;;11.02;3.45;;;;;;;;;;5077548;28;20534;-75
2023/02/15 10:35:51;;;;;;;3.42;2.70;;;;;;;;;;5075226;28;20048;-75
2023/02/15 10:38:38;;;;;;;5.38;2.58;;;;;;;;;;5094731;28;20051;-76
2023/02/15 10:41:36;;;;;;;7.85;2.40;;;;;;;;;;5096536;28;20513;-76
2023/02/15 10:44:50;;;;;;;14.38;3.28;;;;;;;;;;5096285;28;20070;-75
2023/02/15 10:47:52;;;;;;;7.70;2.40;;;;;;;;;;5011113;28;20456;-76
2023/02/15 10:50:28;;;;;;;4.55;2.42;;;;;;;;;;5097385;28;20040;-76
2023/02/15 10:53:25;;;;;;;5.00;2.85;;;;;;;;;;5101017;28;20051;-76
2023/02/15 10:56:22;;;;;;;7.82;2.97;;;;;;;;;;5100407;28;20071;-75
2023/02/15 10:59:01;;;;;;;8.40;3.00;;;;;;;;;;5082872;28;20036;-75
2023/02/15 11:01:42;;;;;;;6.55;2.65;;;;;;;;;;5100171;28;20055;-75
2023/02/15 11:04:30;;;;;;;14.95;3.08;;;;;;;;;;5100696;28;20040;-75
2023/02/15 11:07:09;;;;;;;5.63;2.67;;;;;;;;;;5082999;28;20411;-75
2023/02/15 11:09:53;;;;;;;4.43;2.67;;;;;;;;;;5097921;28;20039;-77
2023/02/15 11:12:27;;;;;;;3.00;2.25;;;;;;;;;;5083400;28;21150;-76
2023/02/15 11:15:18;;;;;;;6.55;2.40;;;;;;;;;;5098552;28;20036;-76
2023/02/15 11:17:57;;;;;;;5.50;2.42;;;;;;;;;;5082082;28;20514;-75
2023/02/15 11:20:58;;;;;;;5.38;2.53;;;;;;;;;;5102461;28;20134;-76
2023/02/15 11:23:30;;;;;;;6.30;2.35;;;;;;;;;;5100695;28;20453;-77
2023/02/15 11:26:06;;;;;;;4.07;2.20;;;;;;;;;;5100384;28;20498;-77
2023/02/15 11:28:54;;;;;;;7.68;3.72;;;;;;;;;;5100988;28;20043;-76
2023/02/15 11:31:30;;;;;;;7.95;3.70;;;;;;;;;;5108561;28;20047;-76
2023/02/15 11:34:11;;;;;;;3.83;2.58;;;;;;;;;;5108037;28;20043;-76
2023/02/15 11:36:45;;;;;;;8.98;3.60;;;;;;;;;;5109078;28;20529;-76
2023/02/15 11:39:18;;;;;;;6.40;3.50;;;;;;;;;;5109222;28;20050;-76
2023/02/15 11:41:55;;;;;;;7.50;3.42;;;;;;;;;;5109268;28;20516;-76
2023/02/15 11:44:32;;;;;;;9.32;3.92;;;;;;;;;;5108819;28;20047;-76
2023/02/15 11:47:08;;;;;;;4.85;3.55;;;;;;;;;;5109433;28;20059;-76
2023/02/15 11:49:39;;;;;;;8.10;3.92;;;;;;;;;;5109874;28;20070;-75
2023/02/15 11:52:15;;;;;;;6.95;3.85;;;;;;;;;;5091446;28;20056;-77
2023/02/15 11:54:51;;;;;;;7.15;3.38;;;;;;;;;;5109711;28;20062;-76
2023/02/15 11:57:38;;;;;;;5.43;3.20;;;;;;;;;;5091092;28;20525;-76
2023/02/15 12:00:14;;;;;;;7.53;3.50;;;;;;;;;;5109746;28;20047;-76
2023/02/15 12:02:50;;;;;;;12.57;3.63;;;;;;;;;;5108176;28;20048;-76
2023/02/15 12:05:25;;;;;;;6.70;3.30;;;;;;;;;;5109269;28;20395;-76
2023/02/15 12:08:03;;;;;;;11.65;3.83;;;;;;;;;;5108215;28;20052;-80
2023/02/15 12:10:40;;;;;;;6.40;4.20;;;;;;;;;;5109174;28;20049;-76
2023/02/15 12:13:14;;;;;;;7.80;3.97;;;;;;;;;;5092061;28;20486;-76
2023/02/15 12:15:48;;;;;;;6.13;4.07;;;;;;;;;;5109595;28;20044;-75
2023/02/15 12:18:34;;;;;;;7.57;3.85;;;;;;;;;;5109094;28;20047;-75
2023/02/15 12:21:15;;;;;;;5.78;3.95;;;;;;;;;;5109240;28;20047;-75
2023/02/15 12:23:54;;;;;;;7.28;3.70;;;;;;;;;;5108796;28;20054;-75
2023/02/15 12:26:30;;;;;;;9.23;4.97;;;;;;;;;;5091063;28;20059;-75
2023/02/15 12:29:07;;;;;;;4.80;3.35;;;;;;;;;;5108510;28;20502;-76
2023/02/15 12:31:45;;;;;;;5.38;3.50;;;;;;;;;;5108851;28;20509;-76
2023/02/15 12:34:27;;;;;;;6.80;3.80;;;;;;;;;;5108811;28;20035;-75
2023/02/15 12:37:02;;;;;;;5.82;2.90;;;;;;;;;;5108934;28;20509;-75
2023/02/15 12:39:32;;;;;;;;;;;;;;;;;;5109235;28;20047;-76
2023/02/15 12:42:14;;;;;;;4.15;2.85;;;;;;;;;;5108678;28;19924;-76
2023/02/15 12:44:56;;;;;;;6.28;2.30;;;;;;;;;;5109304;28;20051;-74
2023/02/15 12:47:29;;;;;;;8.05;2.63;;;;;;;;;;5108238;28;20494;-77
2023/02/15 12:50:27;;;;;;;4.05;2.42;;;;;;;;;;5108376;28;20043;-75
2023/02/15 12:53:46;;;;;;;4.65;2.13;;;;;;;;;;5108647;28;20055;-76
2023/02/15 12:56:27;;;;;;;3.88;2.70;;;;;;;;;;5106456;28;20060;-75
2023/02/15 12:59:05;;;;;;;3.28;2.40;;;;;;;;;;5108099;28;20046;-75
2023/02/15 13:01:37;;;;;;;11.27;2.53;;;;;;;;;;5108617;28;20050;-74
2023/02/15 13:04:27;;;;;;;3.83;2.38;;;;;;;;;;5108337;28;20391;-75
2023/02/15 13:07:02;;;;;;;4.13;2.38;;;;;;;;;;5108550;28;20129;-75
2023/02/15 13:09:32;;;;;;;;;;;;;;;;;;5108480;28;20054;-75
2023/02/15 13:12:27;;;;;;;3.38;2.53;;;;;;;;;;5107610;28;19938;-74
2023/02/15 13:15:02;;;;;;;7.85;2.50;;;;;;;;;;5107885;27;20044;-76
2023/02/15 13:17:34;;;;;;;5.78;2.60;;;;;;;;;;5108073;28;20047;-74
2023/02/15 13:20:17;;;;;;;7.32;2.42;;;;;;;;;;5107698;28;20043;-74
2023/02/15 13:22:58;;;;;;;3.45;1.95;;;;;;;;;;5107994;28;20047;-75
2023/02/15 13:25:35;;;;;;;3.78;2.20;;;;;;;;;;5090051;28;20518;-77
2023/02/15 13:28:06;;;;;;;4.18;1.98;;;;;;;;;;5107969;28;20051;-75
2023/02/15 13:30:42;;;;;;;4.75;1.90;;;;;;;;;;5107534;28;20044;-75
2023/02/15 13:33:26;;;;;;;6.70;2.28;;;;;;;;;;5107731;28;20070;-75
2023/02/15 13:36:20;;;;;;;5.65;2.15;;;;;;;;;;5107694;28;20050;-76
2023/02/15 13:39:16;;;;;;;5.97;2.10;;;;;;;;;;5106989;28;20036;-76
2023/02/15 13:41:55;;;;;;;4.75;1.98;;;;;;;;;;5107439;28;20050;-75
2023/02/15 13:44:58;;;;;;;6.85;2.33;;;;;;;;;;5107324;28;20043;-78
2023/02/15 13:47:46;;;;;;;4.30;2.13;;;;;;;;;;5090025;28;20052;-76
2023/02/15 13:50:46;;;;;;;2.67;1.70;;;;;;;;;;5107586;28;20043;-76
2023/02/15 13:53:34;;;;;;;5.13;2.22;;;;;;;;;;5107553;28;20058;-74
2023/02/15 13:56:29;;;;;;;3.72;2.60;;;;;;;;;;5089444;28;20513;-74
2023/02/15 13:58:59;;;;;;;5.63;2.55;;;;;;;;;;5107194;28;20498;-73
2023/02/15 14:01:32;;;;;;;3.85;2.60;;;;;;;;;;5107272;28;20047;-74
2023/02/15 14:04:33;;;;;;;3.22;2.25;;;;;;;;;;5106787;28;20402;-73
2023/02/15 14:07:09;;;;;;;4.75;2.33;;;;;;;;;;5089135;28;20044;-75
2023/02/15 14:09:40;;;;;;;5.85;3.35;;;;;;;;;;5107068;28;20048;-75
2023/02/15 14:12:10;;;;;;;5.72;2.50;;;;;;;;;;5107589;28;20047;-76
2023/02/15 14:14:58;;;;;;;3.35;2.65;;;;;;;;;;5107094;28;20047;-77
2023/02/15 14:17:49;;;;;;;4.43;2.25;;;;;;;;;;5107696;28;20494;-76
2023/02/15 14:20:29;;;;;;;3.35;2.10;;;;;;;;;;5089093;28;20055;-76
2023/02/15 14:23:06;;;;;;;3.65;2.40;;;;;;;;;;5106554;28;20054;-75
2023/02/15 14:25:56;;;;;;;3.58;2.20;;;;;;;;;;5107869;28;20054;-75
2023/02/15 14:28:39;;;;;;;3.53;2.22;;;;;;;;;;5111203;28;20043;-76
2023/02/15 14:31:13;;;;;;;3.88;2.10;;;;;;;;;;5092582;28;20047;-75
2023/02/15 14:33:52;;;;;;;4.47;2.10;;;;;;;;;;5111681;28;20039;-74
2023/02/15 14:36:24;;;;;;;2.92;2.10;;;;;;;;;;5111473;28;20048;-75
2023/02/15 14:42:38;;;;;;;4.30;2.13;;;;;;;;;;5111081;28;20046;-74
2023/02/15 14:45:18;;;;;;;6.07;2.30;;;;;;;;;;5110615;28;20047;-75
2023/02/15 14:47:58;;;;;;;2.42;1.95;;;;;;;;;;5110862;28;20062;-74
2023/02/15 14:50:37;;;;;;;2.70;1.88;;;;;;;;;;5111377;28;20062;-75
2023/02/15 14:53:25;;;;;;;2.58;1.92;;;;;;;;;;5110574;28;20047;-73
2023/02/15 14:56:19;;;;;;;4.63;2.40;;;;;;;;;;5111590;28;20485;-74
2023/02/15 14:58:52;;;;;;;8.98;2.80;;;;;;;;;;5110478;28;20040;-76
2023/02/15 15:01:37;;;;;;;5.35;3.15;;;;;;;;;;5110971;28;20051;-76
2023/02/15 15:04:23;;;;;;;3.42;2.38;;;;;;;;;;5109545;28;20048;-73
2023/02/15 15:07:14;;;;;;;5.57;2.45;;;;;;;;;;5110360;28;20042;-76
2023/02/15 15:10:15;;;;;;;5.20;2.42;;;;;;;;;;5110632;28;20335;-74
2023/02/15 15:12:55;;;;;;;5.90;2.83;;;;;;;;;;5110234;28;20043;-75
2023/02/15 15:15:31;;;;;;;2.97;2.15;;;;;;;;;;5110484;28;20047;-73
2023/02/15 15:18:06;;;;;;;10.65;2.65;;;;;;;;;;5110132;28;20070;-74
2023/02/15 15:20:51;;;;;;;3.00;2.30;;;;;;;;;;5110281;28;20051;-74
2023/02/15 15:23:24;;;;;;;3.10;2.10;;;;;;;;;;5092517;28;20418;-75
2023/02/15 15:26:17;;;;;;;3.03;2.10;;;;;;;;;;5109013;28;20056;-75
2023/02/15 15:28:48;;;;;;;2.65;2.20;;;;;;;;;;5110248;28;20418;-75
2023/02/15 15:31:18;;;;;;;7.53;3.33;;;;;;;;;;5090684;28;20537;-75
2023/02/15 15:34:35;;;;;;;4.18;2.70;;;;;;;;;;5109803;28;20048;-74
2023/02/15 15:37:27;;;;;;;4.10;2.50;;;;;;;;;;5038232;28;20051;-73
2023/02/15 15:40:13;;;;;;;4.00;2.08;;;;;;;;;;5109873;28;20047;-74
2023/02/15 15:42:57;;;;;;;3.40;2.22;;;;;;;;;;5110064;28;20048;-74
2023/02/15 15:45:49;;;;;;;5.18;1.92;;;;;;;;;;5109668;28;20058;-72
2023/02/15 15:48:39;;;;;;;2.78;1.85;;;;;;;;;;5109650;28;20052;-74
2023/02/15 15:51:27;;;;;;;2.90;2.08;;;;;;;;;;5110013;28;20043;-74
2023/02/15 15:53:57;;;;;;;2.63;1.95;;;;;;;;;;5110176;28;20047;-73
2023/02/15 15:56:32;;;;;;;2.85;2.05;;;;;;;;;;5109583;28;20602;-73
2023/02/15 15:59:06;;;;;;;5.05;2.17;;;;;;;;;;5109368;28;20055;-74
2023/02/15 16:01:46;;;;;;;;;;;;;;;;;;5110604;28;20048;-74
2023/02/15 16:04:31;;;;;;;3.03;1.98;;;;;;;;;;5109624;28;20033;-74
2023/02/15 16:07:16;;;;;;;6.32;2.22;;;;;;;;;;5108957;28;20051;-74
2023/02/15 16:09:57;;;;;;;3.45;2.30;;;;;;;;;;5109161;28;20051;-74
2023/02/15 16:12:32;;;;;;;3.28;2.00;;;;;;;;;;5109130;28;20418;-75